Terminal Aerodrome Forecast
Issued by NWS Shreveport, LA

Home | Current Version | Previous Version | Text Only | Print | Product List | Glossary On
Versions: 1 2 3 4 5 6 7 8 9 10 11 12 13 14 15 16 17 18 19 20 21 22
000
FTUS44 KSHV 050100 AAA
TAFLFK
TAF AMD
KLFK 050142Z 0502/0524 34015G25KT P6SM -RA OVC007
      TEMPO 0511/0515 5SM SHRA BR OVC015
     FM051500 02014G22KT P6SM -RAPL OVC020
     FM051800 03012G20KT P6SM BKN030=

USA.gov is the U.S. government's official web portal to all federal, state and local government web resources and services.